Time;durP1;ratioP1;P1;durP2;ratioP2;P2;SDS_P1;SDS_P2;PMS_P1;PMS_P2;Temp;Humidity;BMP_temperature;BMP_pressure;BME280_temperature;BME280_humidity;BME280_pressure;Samples;Min_cycle;Max_cycle;Signal;HPM_P1;HPM_P2
2021/06/21 00:01:20;;;;;;;19.13;8.75;;;15.50;90.30;;;;;;4978331;28;20077;-52
2021/06/21 00:03:48;;;;;;;13.93;8.73;;;15.50;90.40;;;;;;5009995;28;20495;-53
2021/06/21 00:06:14;;;;;;;17.23;9.13;;;15.30;90.70;;;;;;5010909;28;20134;-54
2021/06/21 00:08:41;;;;;;;16.35;8.80;;;15.50;90.30;;;;;;5008673;28;20490;-52
2021/06/21 00:11:07;;;;;;;15.35;9.73;;;15.50;90.50;;;;;;5012268;28;20512;-50
2021/06/21 00:13:33;;;;;;;16.13;8.75;;;15.50;90.50;;;;;;5011419;28;20128;-53
2021/06/21 00:15:59;;;;;;;12.75;9.10;;;15.40;90.90;;;;;;5004639;28;20133;-51
2021/06/21 00:18:25;;;;;;;11.45;7.03;;;15.40;90.80;;;;;;5014999;28;20125;-53
2021/06/21 00:20:51;;;;;;;12.70;8.02;;;15.50;90.50;;;;;;5018807;28;20473;-53
2021/06/21 00:23:17;;;;;;;17.33;8.07;;;15.40;90.60;;;;;;5017251;28;20034;-52
2021/06/21 00:25:43;;;;;;;12.50;6.97;;;15.50;90.70;;;;;;5011834;28;20041;-53
2021/06/21 00:28:09;;;;;;;10.93;6.43;;;15.50;90.20;;;;;;5013118;28;20042;-51
2021/06/21 00:30:35;;;;;;;11.98;6.43;;;15.50;90.00;;;;;;5011886;28;20048;-51
2021/06/21 00:33:00;;;;;;;15.55;7.05;;;15.50;90.30;;;;;;5012335;28;20041;-52
2021/06/21 00:35:27;;;;;;;14.50;6.80;;;15.50;90.10;;;;;;4990942;28;20381;-53
2021/06/21 00:37:53;;;;;;;12.90;7.47;;;15.40;90.40;;;;;;5002715;28;20050;-52
2021/06/21 00:40:19;;;;;;;14.02;7.75;;;15.50;90.20;;;;;;5012149;28;20275;-51
2021/06/21 00:42:47;;;;;;;17.83;7.35;;;15.40;90.10;;;;;;5010938;28;20058;-52
2021/06/21 00:45:16;;;;;;;13.93;7.00;;;15.40;90.30;;;;;;4993366;28;20050;-52
2021/06/21 00:47:42;;;;;;;13.88;6.85;;;15.30;90.20;;;;;;5011635;28;20049;-51
2021/06/21 00:50:09;;;;;;;14.43;6.60;;;15.30;90.60;;;;;;5011903;28;20041;-52
2021/06/21 00:52:35;;;;;;;14.60;7.18;;;15.30;90.30;;;;;;5011490;28;20066;-52
2021/06/21 00:55:02;;;;;;;15.25;6.70;;;15.40;90.00;;;;;;5010515;28;20046;-54
2021/06/21 00:57:30;;;;;;;15.88;6.97;;;15.30;90.40;;;;;;5005605;28;20046;-52
2021/06/21 01:00:01;;;;;;;14.82;6.75;;;15.40;90.20;;;;;;5014910;28;20045;-52
2021/06/21 01:02:28;;;;;;;14.95;7.93;;;15.40;89.90;;;;;;5005893;28;20049;-52
2021/06/21 01:04:55;;;;;;;17.92;7.53;;;15.30;90.10;;;;;;5010494;28;20037;-55
2021/06/21 01:07:21;;;;;;;11.75;7.32;;;15.30;90.10;;;;;;5016144;28;20414;-51
2021/06/21 01:09:50;;;;;;;12.38;7.57;;;15.30;90.00;;;;;;5011159;28;20044;-50
2021/06/21 01:12:34;;;;;;;15.68;7.07;;;15.20;90.20;;;;;;5011220;28;20044;-49
2021/06/21 01:15:06;;;;;;;14.73;7.13;;;15.30;90.00;;;;;;4999796;28;20065;-53
2021/06/21 01:17:58;;;;;;;16.92;7.78;;;15.30;89.50;;;;;;5006624;28;20103;-51
2021/06/21 01:21:01;;;;;;;15.27;7.68;;;15.40;89.00;;;;;;4993731;28;20499;-53
2021/06/21 01:23:46;;;;;;;13.85;8.25;;;15.30;89.70;;;;;;4991143;28;20069;-49
2021/06/21 01:26:26;;;;;;;14.85;8.48;;;15.10;90.20;;;;;;5006230;28;20046;-52
2021/06/21 01:29:31;;;;;;;15.05;8.45;;;15.10;90.70;;;;;;5010263;28;20117;-53
2021/06/21 01:32:17;;;;;;;19.33;8.80;;;15.20;90.50;;;;;;5007314;28;20060;-51
2021/06/21 01:35:01;;;;;;;15.43;7.90;;;15.10;91.10;;;;;;5007959;28;20038;-52
2021/06/21 01:37:28;;;;;;;14.68;8.00;;;15.00;91.20;;;;;;5006126;28;20133;-50
2021/06/21 01:39:57;;;;;;;13.07;6.90;;;15.00;91.10;;;;;;5010782;28;20116;-52
2021/06/21 01:42:25;;;;;;;14.85;7.57;;;15.00;91.00;;;;;;5009575;28;20522;-53
2021/06/21 01:45:05;;;;;;;13.07;7.45;;;14.90;91.40;;;;;;5010449;28;20569;-53
2021/06/21 01:47:31;;;;;;;14.32;7.38;;;14.80;91.60;;;;;;5010776;28;20042;-53
2021/06/21 01:49:57;;;;;;;15.55;8.30;;;14.90;91.50;;;;;;5018268;28;20506;-49
2021/06/21 01:52:24;;;;;;;13.48;7.43;;;14.80;91.70;;;;;;5011600;28;20049;-53
2021/06/21 01:54:54;;;;;;;13.48;7.22;;;14.80;91.40;;;;;;5010084;28;20030;-52
2021/06/21 01:57:29;;;;;;;11.98;6.95;;;14.70;91.70;;;;;;5003951;28;20049;-51
2021/06/21 01:59:55;;;;;;;10.85;6.45;;;14.70;92.20;;;;;;5011514;28;20038;-52
2021/06/21 02:02:23;;;;;;;11.05;6.63;;;14.60;92.00;;;;;;5010002;28;20045;-51
2021/06/21 02:04:54;;;;;;;10.60;4.72;;;14.50;92.40;;;;;;5003645;28;20093;-53
2021/06/21 02:07:23;;;;;;;10.80;6.43;;;14.60;92.10;;;;;;5014215;28;20128;-51
2021/06/21 02:09:52;;;;;;;10.25;6.07;;;14.50;92.30;;;;;;5017542;28;20049;-52
2021/06/21 02:12:23;;;;;;;10.85;5.60;;;14.50;92.60;;;;;;5017930;28;20456;-49
2021/06/21 02:14:50;;;;;;;8.65;5.38;;;14.60;92.00;;;;;;5016660;28;20046;-52
2021/06/21 02:17:21;;;;;;;9.15;5.85;;;14.50;92.40;;;;;;5010700;28;20132;-49
2021/06/21 02:19:51;;;;;;;14.77;6.60;;;14.40;92.70;;;;;;4976949;28;20049;-53
2021/06/21 02:22:22;;;;;;;9.13;5.68;;;14.40;92.80;;;;;;4963001;28;20046;-53
2021/06/21 02:24:49;;;;;;;9.75;6.15;;;14.40;92.70;;;;;;5009117;28;20049;-52
2021/06/21 02:27:16;;;;;;;13.23;6.57;;;14.40;92.40;;;;;;5007984;28;20038;-52
2021/06/21 02:29:43;;;;;;;14.32;6.18;;;14.40;92.50;;;;;;4976592;28;20064;-53
2021/06/21 02:32:10;;;;;;;11.18;6.10;;;14.50;92.20;;;;;;4977009;28;20061;-52
2021/06/21 02:34:37;;;;;;;9.65;4.93;;;14.40;92.30;;;;;;4992484;28;20507;-52
2021/06/21 02:37:03;;;;;;;10.65;6.28;;;14.40;92.40;;;;;;4980262;28;20095;-51
2021/06/21 02:39:29;;;;;;;12.43;6.10;;;14.40;92.30;;;;;;4980578;28;20045;-52
2021/06/21 02:41:55;;;;;;;12.40;6.28;;;14.30;92.50;;;;;;5010175;28;20050;-52
2021/06/21 02:44:21;;;;;;;13.15;6.65;;;14.30;92.30;;;;;;5010662;28;20116;-49
2021/06/21 02:46:46;;;;;;;10.48;5.65;;;14.30;92.50;;;;;;5019270;28;20041;-48
2021/06/21 02:49:12;;;;;;;11.85;5.88;;;14.30;92.40;;;;;;4994328;28;20473;-53
2021/06/21 02:51:43;;;;;;;12.13;6.13;;;14.30;92.90;;;;;;5015327;28;20129;-52
2021/06/21 02:54:15;;;;;;;12.82;5.78;;;14.20;93.00;;;;;;5013739;28;20048;-51
2021/06/21 02:56:49;;;;;;;11.60;5.85;;;14.30;92.20;;;;;;4995984;28;20686;-51
2021/06/21 02:59:18;;;;;;;10.52;6.00;;;14.20;92.50;;;;;;5014117;28;20045;-51
2021/06/21 03:01:53;;;;;;;11.95;5.60;;;14.10;93.00;;;;;;5011121;28;20049;-51
2021/06/21 03:04:22;;;;;;;8.20;5.45;;;14.10;93.10;;;;;;5009931;28;20052;-50
2021/06/21 03:06:50;;;;;;;12.20;5.40;;;14.20;93.00;;;;;;5012428;28;20041;-52
2021/06/21 03:09:18;;;;;;;10.57;5.50;;;14.20;92.80;;;;;;5022316;28;20038;-52
2021/06/21 03:11:48;;;;;;;12.10;5.70;;;14.20;92.70;;;;;;5013430;28;20108;-49
2021/06/21 03:14:14;;;;;;;8.23;5.07;;;14.10;92.80;;;;;;5013221;28;20046;-51
2021/06/21 03:16:41;;;;;;;11.90;5.18;;;14.10;93.00;;;;;;5009102;28;20107;-48
2021/06/21 03:19:07;;;;;;;7.90;4.45;;;14.00;93.20;;;;;;5018948;28;20054;-50
2021/06/21 03:21:33;;;;;;;11.73;5.10;;;14.00;93.20;;;;;;5011088;28;20101;-52
2021/06/21 03:23:58;;;;;;;9.43;4.90;;;14.10;92.70;;;;;;5009850;28;20048;-51
2021/06/21 03:26:26;;;;;;;10.52;5.03;;;14.10;92.70;;;;;;5015802;28;20569;-51
2021/06/21 03:28:52;;;;;;;7.95;4.80;;;14.10;93.00;;;;;;5018787;28;20042;-52
2021/06/21 03:31:21;;;;;;;6.60;4.05;;;14.00;93.10;;;;;;5022012;28;20505;-51
2021/06/21 03:33:47;;;;;;;9.82;4.80;;;14.10;92.90;;;;;;4974128;28;20141;-54
2021/06/21 03:36:13;;;;;;;8.35;4.65;;;14.00;93.20;;;;;;5006990;28;20149;-52
2021/06/21 03:38:38;;;;;;;13.48;5.28;;;14.10;93.10;;;;;;5013180;28;20487;-50
2021/06/21 03:41:05;;;;;;;10.60;5.65;;;14.10;92.90;;;;;;5007309;28;20072;-49
2021/06/21 03:43:33;;;;;;;13.43;6.00;;;14.00;93.40;;;;;;5012803;28;20068;-52
2021/06/21 03:46:01;;;;;;;12.50;5.95;;;13.90;93.70;;;;;;4978304;28;20099;-52
2021/06/21 03:48:28;;;;;;;12.50;5.60;;;13.90;93.90;;;;;;5012032;28;20061;-51
2021/06/21 03:50:55;;;;;;;12.75;5.82;;;13.90;93.70;;;;;;5013140;28;20034;-52
2021/06/21 03:53:24;;;;;;;10.02;5.53;;;14.00;93.60;;;;;;4962794;28;20042;-52
2021/06/21 03:55:50;;;;;;;11.63;5.68;;;14.00;93.50;;;;;;5010513;28;20060;-52
2021/06/21 03:58:17;;;;;;;11.52;5.75;;;13.90;93.80;;;;;;5014797;28;20038;-54
2021/06/21 04:00:44;;;;;;;9.70;5.75;;;13.90;93.60;;;;;;5013751;28;20116;-52
2021/06/21 04:03:11;;;;;;;16.08;5.72;;;13.80;94.10;;;;;;5013766;28;20456;-53
2021/06/21 04:05:39;;;;;;;14.40;6.13;;;13.80;94.60;;;;;;4991588;28;20041;-52
2021/06/21 04:08:09;;;;;;;13.82;6.15;;;13.90;94.10;;;;;;5012771;28;20060;-49
2021/06/21 04:10:37;;;;;;;9.80;6.10;;;13.90;94.10;;;;;;4994875;28;20487;-49
2021/06/21 04:13:04;;;;;;;9.77;5.97;;;13.90;94.00;;;;;;4993634;28;20073;-52
2021/06/21 04:15:31;;;;;;;10.77;5.97;;;13.90;94.00;;;;;;5012048;28;20030;-52
2021/06/21 04:18:03;;;;;;;9.35;6.53;;;13.80;94.40;;;;;;5016563;28;20505;-51
2021/06/21 04:20:29;;;;;;;10.98;6.70;;;13.90;94.00;;;;;;5014972;28;20132;-49
2021/06/21 04:22:56;;;;;;;12.95;6.85;;;13.80;94.30;;;;;;5012203;28;20054;-48
2021/06/21 04:25:23;;;;;;;12.93;6.80;;;13.70;94.60;;;;;;5011337;28;20045;-52
2021/06/21 04:27:50;;;;;;;12.00;7.13;;;13.70;94.90;;;;;;5011433;28;20060;-49
2021/06/21 04:30:20;;;;;;;14.18;6.97;;;13.80;94.40;;;;;;5012372;28;20402;-50
2021/06/21 04:32:47;;;;;;;12.80;7.80;;;13.70;94.40;;;;;;4993779;28;20037;-53
2021/06/21 04:35:16;;;;;;;12.43;7.07;;;13.80;94.70;;;;;;5011531;28;20049;-50
2021/06/21 04:37:43;;;;;;;14.63;7.95;;;13.80;95.00;;;;;;5012124;28;20054;-54
2021/06/21 04:40:11;;;;;;;17.48;9.70;;;13.70;95.10;;;;;;4999219;28;20065;-50
2021/06/21 04:42:37;;;;;;;13.23;8.38;;;13.70;95.30;;;;;;5021335;28;20049;-52
2021/06/21 04:45:05;;;;;;;13.70;9.18;;;13.90;94.60;;;;;;5011210;28;20046;-53
2021/06/21 04:47:31;;;;;;;22.08;10.32;;;13.90;94.60;;;;;;5011906;28;20042;-51
2021/06/21 04:50:03;;;;;;;19.63;10.23;;;13.80;94.90;;;;;;5011448;28;20422;-51
2021/06/21 04:52:33;;;;;;;19.40;10.18;;;13.70;94.90;;;;;;5012999;28;20050;-50
2021/06/21 04:55:02;;;;;;;16.02;9.15;;;13.90;95.20;;;;;;5010755;28;20042;-52
2021/06/21 04:57:32;;;;;;;;;;;13.80;95.30;;;;;;5012613;28;20053;-52
2021/06/21 04:59:59;;;;;;;15.00;8.55;;;13.80;95.30;;;;;;5008573;28;19917;-52
2021/06/21 05:02:25;;;;;;;12.82;8.30;;;13.80;95.30;;;;;;4994011;28;20503;-53
2021/06/21 05:04:52;;;;;;;13.70;9.00;;;13.90;95.10;;;;;;4993316;28;20181;-53
2021/06/21 05:07:18;;;;;;;16.27;8.68;;;13.90;94.80;;;;;;4992167;28;20105;-53
2021/06/21 05:09:44;;;;;;;12.57;6.68;;;13.90;95.50;;;;;;5012074;28;20070;-51
2021/06/21 05:12:10;;;;;;;16.20;8.02;;;13.90;95.30;;;;;;5016536;28;20594;-51
2021/06/21 05:14:37;;;;;;;11.35;6.50;;;13.90;94.90;;;;;;5028749;28;20045;-53
2021/06/21 05:17:07;;;;;;;15.00;7.18;;;14.00;94.90;;;;;;5000631;28;20042;-51
2021/06/21 05:19:33;;;;;;;14.57;7.50;;;14.00;94.80;;;;;;5002151;28;20449;-52
2021/06/21 05:21:59;;;;;;;15.38;6.85;;;14.00;94.60;;;;;;5007641;28;20095;-55
2021/06/21 05:24:25;;;;;;;12.65;7.65;;;14.10;94.50;;;;;;4982292;28;20046;-50
2021/06/21 05:26:51;;;;;;;15.25;7.20;;;14.00;94.90;;;;;;5007502;28;20415;-52
2021/06/21 05:29:17;;;;;;;9.95;5.82;;;14.00;94.80;;;;;;5010383;28;20390;-52
2021/06/21 05:31:43;;;;;;;12.48;6.57;;;13.90;94.80;;;;;;5014972;28;20548;-53
2021/06/21 05:34:09;;;;;;;8.70;5.97;;;14.00;94.80;;;;;;4991314;28;20037;-52
2021/06/21 05:36:35;;;;;;;14.38;6.68;;;14.00;94.60;;;;;;4992878;28;20044;-52
2021/06/21 05:39:01;;;;;;;13.68;6.82;;;14.00;94.60;;;;;;5010878;28;20049;-52
2021/06/21 05:41:26;;;;;;;13.25;7.13;;;14.00;94.80;;;;;;5004650;28;20076;-48
2021/06/21 05:43:52;;;;;;;12.40;6.32;;;14.00;94.80;;;;;;5009241;28;20033;-53
2021/06/21 05:46:17;;;;;;;13.18;7.45;;;14.00;95.00;;;;;;5009321;28;20445;-52
2021/06/21 05:48:43;;;;;;;10.57;6.50;;;13.80;95.20;;;;;;5005391;28;20029;-51
2021/06/21 05:51:09;;;;;;;12.43;6.70;;;14.00;94.90;;;;;;5012243;28;20057;-52
2021/06/21 05:53:34;;;;;;;11.68;6.43;;;14.00;94.90;;;;;;5012829;28;20033;-52
2021/06/21 05:56:00;;;;;;;9.60;5.50;;;13.90;95.00;;;;;;5021722;28;20037;-54
2021/06/21 05:58:26;;;;;;;14.10;6.93;;;13.90;95.20;;;;;;4979988;28;20049;-53
2021/06/21 06:00:53;;;;;;;10.55;6.70;;;13.90;94.70;;;;;;4980680;28;20046;-54
2021/06/21 06:03:18;;;;;;;11.45;5.80;;;13.90;95.50;;;;;;5013431;28;20045;-52
2021/06/21 06:05:44;;;;;;;10.60;6.10;;;14.00;95.00;;;;;;5023327;28;20402;-53
2021/06/21 06:08:09;;;;;;;11.10;7.28;;;14.00;94.90;;;;;;5024850;28;20497;-51
2021/06/21 06:10:35;;;;;;;11.20;7.03;;;14.00;94.80;;;;;;5018541;28;20087;-51
2021/06/21 06:13:01;;;;;;;9.90;6.03;;;13.90;95.30;;;;;;5016235;28;20110;-52
2021/06/21 06:15:27;;;;;;;7.82;4.97;;;14.00;95.10;;;;;;5020492;28;20093;-55
2021/06/21 06:17:53;;;;;;;12.85;7.30;;;14.00;94.80;;;;;;5022947;28;20104;-54
2021/06/21 06:20:19;;;;;;;8.55;5.32;;;13.90;95.00;;;;;;5024002;28;20343;-55
2021/06/21 06:23:05;;;;;;;9.38;5.95;;;13.80;95.30;;;;;;5003444;28;20053;-53
2021/06/21 06:25:32;;;;;;;10.45;6.13;;;13.90;95.70;;;;;;5009812;28;20045;-55
2021/06/21 06:27:59;;;;;;;11.40;6.82;;;13.80;95.60;;;;;;5026212;28;20030;-53
2021/06/21 06:30:26;;;;;;;12.60;6.10;;;14.10;94.70;;;;;;5022521;28;20391;-49
2021/06/21 06:32:52;;;;;;;14.77;7.15;;;14.00;95.20;;;;;;5010853;28;20040;-52
2021/06/21 06:35:18;;;;;;;13.98;7.10;;;13.80;95.20;;;;;;5027608;28;20041;-49
2021/06/21 06:37:45;;;;;;;11.30;7.07;;;14.00;95.10;;;;;;5026717;28;20403;-52
2021/06/21 06:40:12;;;;;;;10.45;7.00;;;13.90;95.20;;;;;;5027227;28;20064;-54
2021/06/21 06:42:37;;;;;;;12.48;6.43;;;13.90;95.20;;;;;;5024430;28;20038;-51
2021/06/21 06:45:04;;;;;;;9.68;6.22;;;13.90;95.30;;;;;;5026730;28;20395;-53
2021/06/21 06:47:31;;;;;;;9.05;5.63;;;13.90;95.30;;;;;;5024627;28;20046;-55
2021/06/21 06:49:58;;;;;;;10.68;5.60;;;13.90;95.20;;;;;;5023360;28;20049;-54
2021/06/21 06:52:24;;;;;;;9.35;4.93;;;14.00;95.10;;;;;;5028163;28;20037;-54
2021/06/21 06:57:37;;;;;;;10.32;6.40;;;14.00;94.70;;;;;;5011051;28;20041;-51
2021/06/21 07:00:05;;;;;;;10.80;6.07;;;13.90;94.80;;;;;;5029150;28;20037;-53
2021/06/21 07:02:31;;;;;;;11.18;5.90;;;14.00;94.90;;;;;;5020469;28;20041;-50
2021/06/21 07:04:57;;;;;;;10.50;6.55;;;13.90;95.20;;;;;;5018147;28;20030;-50
2021/06/21 07:07:23;;;;;;;11.55;6.43;;;13.90;95.00;;;;;;5012865;28;20034;-50
2021/06/21 07:09:49;;;;;;;11.52;5.75;;;13.80;95.50;;;;;;4995701;28;20512;-51
2021/06/21 07:12:15;;;;;;;10.00;5.00;;;13.90;95.30;;;;;;5012997;28;20038;-53
2021/06/21 07:14:40;;;;;;;11.68;5.85;;;13.90;95.20;;;;;;5007934;28;20041;-52
2021/06/21 07:17:06;;;;;;;12.45;5.78;;;13.80;95.40;;;;;;5012811;28;20568;-50
2021/06/21 07:19:32;;;;;;;10.80;5.70;;;13.80;95.30;;;;;;5013902;28;20046;-53
2021/06/21 07:21:58;;;;;;;9.73;5.88;;;13.90;95.20;;;;;;5016485;28;20084;-52
2021/06/21 07:24:24;;;;;;;10.77;5.63;;;13.90;95.20;;;;;;5013557;28;20069;-51
2021/06/21 07:26:51;;;;;;;10.35;5.38;;;13.90;95.40;;;;;;5012419;28;20519;-48
2021/06/21 07:29:17;;;;;;;11.95;5.50;;;13.80;95.50;;;;;;5010233;28;20060;-51
2021/06/21 07:31:43;;;;;;;9.43;5.57;;;13.80;95.80;;;;;;5012366;28;20450;-52
2021/06/21 07:34:09;;;;;;;9.05;5.10;;;13.80;95.60;;;;;;5009700;28;20084;-51
2021/06/21 07:36:36;;;;;;;10.73;5.25;;;13.90;95.20;;;;;;4997939;28;20130;-52
2021/06/21 07:39:03;;;;;;;7.00;3.67;;;14.00;95.30;;;;;;5011757;28;20510;-52
2021/06/21 07:41:29;;;;;;;9.60;4.65;;;14.00;94.70;;;;;;5010774;28;20167;-52
2021/06/21 07:43:55;;;;;;;8.90;4.75;;;14.10;94.60;;;;;;5012015;28;20046;-50
2021/06/21 07:46:21;;;;;;;7.43;3.97;;;14.00;95.00;;;;;;5011734;28;20132;-53
2021/06/21 07:48:47;;;;;;;8.98;4.47;;;14.00;94.80;;;;;;4995352;28;20120;-51
2021/06/21 07:51:14;;;;;;;9.50;5.00;;;14.00;95.30;;;;;;5014441;28;20079;-49
2021/06/21 07:53:42;;;;;;;9.10;4.85;;;13.90;95.60;;;;;;5011883;28;20042;-50
2021/06/21 07:56:09;;;;;;;8.18;4.53;;;13.90;95.80;;;;;;5011722;28;20046;-49
2021/06/21 07:58:40;;;;;;;10.07;5.07;;;14.00;95.10;;;;;;5012347;28;20038;-52
2021/06/21 08:01:07;;;;;;;12.43;5.22;;;13.90;95.60;;;;;;4994346;28;20053;-52
2021/06/21 08:03:33;;;;;;;10.80;5.18;;;13.90;95.90;;;;;;4999968;28;20449;-51
2021/06/21 08:06:03;;;;;;;9.85;4.45;;;13.90;95.80;;;;;;5011337;28;20536;-54
2021/06/21 08:08:29;;;;;;;4.55;3.17;;;14.00;95.60;;;;;;5010743;28;20872;-53
2021/06/21 08:10:55;;;;;;;10.02;4.32;;;14.00;95.60;;;;;;4992711;28;20406;-49
2021/06/21 08:13:21;;;;;;;7.05;4.15;;;14.00;95.50;;;;;;5012414;28;20046;-49
2021/06/21 08:15:47;;;;;;;9.13;4.70;;;14.00;95.60;;;;;;4993189;28;20475;-49
2021/06/21 08:18:14;;;;;;;5.18;3.20;;;14.00;95.50;;;;;;5014488;28;20558;-52
2021/06/21 08:20:42;;;;;;;7.20;3.60;;;14.10;95.20;;;;;;5008256;28;20160;-54
2021/06/21 08:23:15;;;;;;;7.15;4.05;;;14.00;95.50;;;;;;5003945;28;20046;-50
2021/06/21 08:25:41;;;;;;;7.68;3.95;;;14.00;95.30;;;;;;5005394;28;20129;-52
2021/06/21 08:28:08;;;;;;;9.73;4.80;;;14.00;95.70;;;;;;4986079;28;20122;-52
2021/06/21 08:30:36;;;;;;;9.63;4.75;;;13.90;95.70;;;;;;5008117;28;20045;-53
2021/06/21 08:33:06;;;;;;;8.63;4.40;;;13.90;96.00;;;;;;5007227;28;20042;-52
2021/06/21 08:35:32;;;;;;;7.88;4.78;;;14.10;95.50;;;;;;5007417;28;20048;-48
2021/06/21 08:37:58;;;;;;;5.95;4.30;;;14.00;95.70;;;;;;5009515;28;20509;-54
2021/06/21 08:40:24;;;;;;;11.23;4.70;;;14.10;95.30;;;;;;4999182;28;20049;-49
2021/06/21 08:42:53;;;;;;;10.52;4.78;;;14.10;95.30;;;;;;5009523;28;20220;-50
2021/06/21 08:45:20;;;;;;;9.85;5.10;;;14.10;96.00;;;;;;5004111;28;20042;-51
2021/06/21 08:47:46;;;;;;;12.73;5.47;;;14.10;95.80;;;;;;4999687;28;20698;-53
2021/06/21 08:50:14;;;;;;;11.32;5.18;;;14.00;96.10;;;;;;5013534;28;20050;-55
2021/06/21 08:52:42;;;;;;;11.50;5.30;;;14.00;96.50;;;;;;4995050;28;20053;-50
2021/06/21 08:55:11;;;;;;;8.85;4.43;;;14.00;96.60;;;;;;4994184;28;20054;-54
2021/06/21 08:57:40;;;;;;;7.53;4.47;;;14.10;95.90;;;;;;4994769;28;20046;-54
2021/06/21 09:00:09;;;;;;;9.60;4.85;;;14.00;95.80;;;;;;4996759;28;20072;-51
2021/06/21 09:02:35;;;;;;;11.07;5.30;;;14.00;96.10;;;;;;5013845;28;20471;-51
2021/06/21 09:05:04;;;;;;;8.50;4.03;;;13.90;96.00;;;;;;5013916;28;20474;-54
2021/06/21 09:07:30;;;;;;;7.78;3.92;;;14.10;95.80;;;;;;5018193;28;20168;-51
2021/06/21 09:09:58;;;;;;;12.80;5.22;;;14.10;95.60;;;;;;5015177;28;20501;-51
2021/06/21 09:12:29;;;;;;;9.30;4.55;;;13.90;95.90;;;;;;5012744;28;20042;-54
2021/06/21 09:14:57;;;;;;;8.13;4.68;;;13.80;96.10;;;;;;5011347;28;20042;-50
2021/06/21 09:17:30;;;;;;;9.27;4.10;;;13.80;96.20;;;;;;5011442;28;20491;-52
2021/06/21 09:19:57;;;;;;;10.48;4.40;;;13.90;95.70;;;;;;5015646;28;20053;-54
2021/06/21 09:22:38;;;;;;;9.90;4.32;;;14.00;95.50;;;;;;5013775;28;20467;-53
2021/06/21 09:25:15;;;;;;;13.30;4.47;;;13.90;96.00;;;;;;5006175;28;20375;-52
2021/06/21 09:27:41;;;;;;;9.93;5.00;;;13.90;95.30;;;;;;5011066;28;20046;-54
2021/06/21 09:30:12;;;;;;;11.18;4.85;;;13.80;95.80;;;;;;5006253;28;20117;-51
2021/06/21 09:32:40;;;;;;;8.60;4.28;;;13.90;95.90;;;;;;5012042;28;20121;-55
2021/06/21 09:35:09;;;;;;;12.57;4.93;;;14.00;95.60;;;;;;4989940;28;20045;-49
2021/06/21 09:37:47;;;;;;;8.30;4.40;;;13.80;96.00;;;;;;4995368;28;20037;-48
2021/06/21 09:40:30;;;;;;;10.35;5.43;;;13.80;96.20;;;;;;5011170;28;20052;-49
2021/06/21 09:43:27;;;;;;;10.77;4.60;;;13.90;95.80;;;;;;4965903;28;20042;-49
2021/06/21 09:46:09;;;;;;;11.00;4.78;;;13.90;95.90;;;;;;5011342;28;20058;-52
2021/06/21 09:48:51;;;;;;;12.82;4.97;;;13.90;96.20;;;;;;4995445;28;20042;-51
2021/06/21 09:51:22;;;;;;;11.73;4.97;;;13.90;96.00;;;;;;4994000;28;20049;-52
2021/06/21 09:54:12;;;;;;;7.97;4.80;;;13.80;96.50;;;;;;5003680;28;20096;-50
2021/06/21 09:56:46;;;;;;;10.40;4.63;;;13.90;96.20;;;;;;4967073;28;20050;-54
2021/06/21 09:59:29;;;;;;;12.23;4.75;;;14.00;95.80;;;;;;5016262;28;20100;-51
2021/06/21 10:02:04;;;;;;;9.60;4.40;;;14.00;96.00;;;;;;5019391;28;20050;-53
2021/06/21 10:04:31;;;;;;;8.95;4.75;;;14.00;95.90;;;;;;5016004;28;20065;-51
2021/06/21 10:06:57;;;;;;;10.80;5.40;;;14.10;96.00;;;;;;4983210;28;20072;-51
2021/06/21 10:09:23;;;;;;;10.40;4.72;;;14.00;96.20;;;;;;5015826;28;20042;-52
2021/06/21 10:11:48;;;;;;;7.55;4.55;;;14.00;96.40;;;;;;5019388;28;20482;-51
2021/06/21 10:14:16;;;;;;;8.50;3.85;;;14.00;96.50;;;;;;5029299;28;20041;-53
2021/06/21 10:16:44;;;;;;;10.50;5.60;;;14.00;96.30;;;;;;5016519;28;20187;-52
2021/06/21 10:19:12;;;;;;;6.80;3.30;;;14.00;96.10;;;;;;5019070;28;20060;-54
2021/06/21 10:21:41;;;;;;;6.68;3.53;;;14.20;95.50;;;;;;5015135;28;20033;-54
2021/06/21 10:24:07;;;;;;;9.90;3.85;;;14.20;95.50;;;;;;5012718;28;20073;-54
2021/06/21 10:26:33;;;;;;;8.20;3.58;;;14.10;95.80;;;;;;5014596;28;20069;-53
2021/06/21 10:29:00;;;;;;;9.27;4.75;;;14.30;95.30;;;;;;4998146;28;20400;-52
2021/06/21 10:31:29;;;;;;;10.70;4.00;;;14.20;95.60;;;;;;5015171;28;20092;-49
2021/06/21 10:34:00;;;;;;;9.65;3.88;;;14.00;95.80;;;;;;5005463;28;20062;-53
2021/06/21 10:36:43;;;;;;;11.05;3.28;;;14.00;95.70;;;;;;5016048;28;20092;-53
2021/06/21 10:39:18;;;;;;;7.43;3.10;;;14.00;95.50;;;;;;5006343;28;20065;-53
2021/06/21 10:42:06;;;;;;;8.20;3.28;;;13.90;95.70;;;;;;4982614;28;20048;-52
2021/06/21 10:44:59;;;;;;;8.00;3.40;;;13.90;95.20;;;;;;5016690;28;20050;-49
2021/06/21 10:47:34;;;;;;;6.65;2.70;;;13.80;95.70;;;;;;5013175;28;20396;-52
2021/06/21 10:50:21;;;;;;;7.20;2.80;;;13.90;95.30;;;;;;5017486;28;20110;-51
2021/06/21 10:52:50;;;;;;;8.13;3.13;;;13.80;95.30;;;;;;5016491;28;20038;-49
2021/06/21 10:55:27;;;;;;;11.27;3.00;;;13.60;95.60;;;;;;5016007;28;20030;-48
2021/06/21 10:58:08;;;;;;;7.25;3.25;;;13.60;95.70;;;;;;5015128;28;20513;-51
2021/06/21 11:00:42;;;;;;;7.38;3.13;;;13.50;96.20;;;;;;5016460;28;20056;-54
2021/06/21 11:03:23;;;;;;;9.88;3.22;;;13.50;96.60;;;;;;4996010;28;20045;-52
2021/06/21 11:05:53;;;;;;;4.43;2.38;;;13.60;96.00;;;;;;5018910;28;20068;-55
2021/06/21 11:08:51;;;;;;;7.63;2.85;;;13.60;95.90;;;;;;5014697;28;20034;-53
2021/06/21 11:11:45;;;;;;;6.05;3.05;;;13.60;95.60;;;;;;5018695;28;20570;-51
2021/06/21 11:14:13;;;;;;;7.20;3.30;;;13.60;95.70;;;;;;5022484;28;20494;-53
2021/06/21 11:16:41;;;;;;;6.93;3.35;;;13.60;95.90;;;;;;5018692;28;20053;-52
2021/06/21 11:19:20;;;;;;;6.88;3.42;;;13.70;96.00;;;;;;5017990;28;20129;-51
2021/06/21 11:21:56;;;;;;;5.72;3.03;;;13.60;96.10;;;;;;5015753;28;20038;-50
2021/06/21 11:24:37;;;;;;;8.88;3.63;;;13.70;95.80;;;;;;5015112;28;20410;-52
2021/06/21 11:27:18;;;;;;;9.30;3.20;;;13.80;95.40;;;;;;5025121;28;20041;-49
2021/06/21 11:29:47;;;;;;;5.57;3.03;;;13.70;95.60;;;;;;5014311;28;20042;-50
2021/06/21 11:32:14;;;;;;;7.75;2.67;;;13.80;95.70;;;;;;5014979;28;20084;-52
2021/06/21 11:34:47;;;;;;;9.90;3.30;;;13.90;95.30;;;;;;5015724;28;20038;-53
2021/06/21 11:37:43;;;;;;;7.40;3.03;;;13.90;95.50;;;;;;5014281;28;20176;-52
2021/06/21 11:40:27;;;;;;;6.90;3.33;;;13.80;96.00;;;;;;5004918;28;20054;-50
2021/06/21 11:43:02;;;;;;;5.25;3.42;;;13.80;96.10;;;;;;5031919;28;20053;-51
2021/06/21 11:46:00;;;;;;;8.05;3.00;;;13.80;95.90;;;;;;5022832;28;20125;-53
2021/06/21 11:48:33;;;;;;;9.18;3.20;;;13.90;95.50;;;;;;4953385;28;20111;-51
2021/06/21 11:51:19;;;;;;;8.05;3.00;;;13.90;95.70;;;;;;5015550;28;20168;-51
2021/06/21 11:53:50;;;;;;;6.60;3.17;;;13.70;96.10;;;;;;5013755;28;20092;-51
2021/06/21 11:56:26;;;;;;;5.75;2.65;;;13.70;96.30;;;;;;5027237;28;20517;-52
2021/06/21 11:58:55;;;;;;;7.53;2.88;;;13.70;96.40;;;;;;5014955;28;20037;-53
2021/06/21 12:01:25;;;;;;;7.60;2.80;;;13.80;96.00;;;;;;5017223;28;20034;-52
2021/06/21 12:03:58;;;;;;;6.97;3.28;;;14.00;95.60;;;;;;5033651;28;20037;-52
2021/06/21 12:06:26;;;;;;;8.55;2.70;;;13.90;95.60;;;;;;5017245;28;20069;-52
2021/06/21 12:08:51;;;;;;;9.50;2.78;;;13.80;96.00;;;;;;5015199;28;20037;-49
2021/06/21 12:11:22;;;;;;;6.45;3.00;;;13.80;95.90;;;;;;4995836;28;20037;-51
2021/06/21 12:14:05;;;;;;;6.50;2.80;;;13.80;96.20;;;;;;5013425;28;20033;-52
2021/06/21 12:16:39;;;;;;;5.28;2.85;;;13.90;96.40;;;;;;4995773;28;20482;-51
2021/06/21 12:19:05;;;;;;;6.45;3.03;;;13.90;96.10;;;;;;5020321;28;20041;-55
2021/06/21 12:21:36;;;;;;;7.15;2.60;;;13.90;95.80;;;;;;5013115;28;20124;-51
2021/06/21 12:24:26;;;;;;;7.30;3.60;;;13.90;96.10;;;;;;5011534;28;20128;-53
2021/06/21 12:27:03;;;;;;;6.20;2.60;;;13.90;96.10;;;;;;5013151;28;20069;-53
2021/06/21 12:29:37;;;;;;;7.03;2.60;;;13.90;96.10;;;;;;5013170;28;20052;-55
2021/06/21 12:32:10;;;;;;;3.67;2.20;;;14.10;95.20;;;;;;4998852;28;20116;-52
2021/06/21 12:34:58;;;;;;;4.97;2.63;;;14.10;95.80;;;;;;5012658;28;20113;-51
2021/06/21 12:37:30;;;;;;;4.50;2.60;;;14.00;95.80;;;;;;5012328;28;20122;-55
2021/06/21 12:40:03;;;;;;;5.30;2.38;;;13.90;96.20;;;;;;4999406;28;20092;-53
2021/06/21 12:42:33;;;;;;;7.70;2.85;;;13.90;96.20;;;;;;5011979;28;20425;-52
2021/06/21 12:45:20;;;;;;;5.93;2.55;;;14.00;96.10;;;;;;5011872;28;20314;-49
2021/06/21 12:47:51;;;;;;;7.95;2.63;;;14.00;96.20;;;;;;5012729;28;20037;-52
2021/06/21 12:50:19;;;;;;;3.95;2.50;;;14.00;95.90;;;;;;4995335;28;20054;-52
2021/06/21 12:52:47;;;;;;;6.95;2.50;;;13.90;95.80;;;;;;5013100;28;20046;-48
2021/06/21 12:55:16;;;;;;;5.90;2.80;;;13.80;96.10;;;;;;5011861;28;20064;-49
2021/06/21 12:57:47;;;;;;;5.82;2.63;;;13.90;95.90;;;;;;5013214;28;20046;-54